sensor_id;sensor_type;location;lat;lon;timestamp;temperature;humidity
52285;DHT22;38238;53.304;6.606;2023-01-10T00:00:22;4.60;99.90
52285;DHT22;38238;53.304;6.606;2023-01-10T00:02:50;4.50;99.90
52285;DHT22;38238;53.304;6.606;2023-01-10T00:05:16;4.50;99.90
52285;DHT22;38238;53.304;6.606;2023-01-10T00:07:41;4.80;99.90
52285;DHT22;38238;53.304;6.606;2023-01-10T00:10:08;4.50;99.90
52285;DHT22;38238;53.304;6.606;2023-01-10T00:12:34;4.50;99.90
52285;DHT22;38238;53.304;6.606;2023-01-10T00:15:19;4.60;99.90
52285;DHT22;38238;53.304;6.606;2023-01-10T00:17:44;4.50;99.90
52285;DHT22;38238;53.304;6.606;2023-01-10T00:20:10;4.40;99.90
52285;DHT22;38238;53.304;6.606;2023-01-10T00:22:36;4.40;99.90
52285;DHT22;38238;53.304;6.606;2023-01-10T00:25:02;4.40;99.90
52285;DHT22;38238;53.304;6.606;2023-01-10T00:27:28;4.40;99.90
52285;DHT22;38238;53.304;6.606;2023-01-10T00:29:54;5.30;99.90
52285;DHT22;38238;53.304;6.606;2023-01-10T00:32:21;4.40;99.90
52285;DHT22;38238;53.304;6.606;2023-01-10T00:34:47;4.40;99.90
52285;DHT22;38238;53.304;6.606;2023-01-10T00:37:13;4.40;99.90
52285;DHT22;38238;53.304;6.606;2023-01-10T00:39:39;4.30;99.90
52285;DHT22;38238;53.304;6.606;2023-01-10T00:42:04;4.30;99.90
52285;DHT22;38238;53.304;6.606;2023-01-10T00:44:49;4.30;99.90
52285;DHT22;38238;53.304;6.606;2023-01-10T00:47:14;5.10;99.90
52285;DHT22;38238;53.304;6.606;2023-01-10T00:49:41;4.90;99.90
52285;DHT22;38238;53.304;6.606;2023-01-10T00:52:06;4.40;99.90
52285;DHT22;38238;53.304;6.606;2023-01-10T00:54:33;4.40;99.90
52285;DHT22;38238;53.304;6.606;2023-01-10T00:56:58;4.70;99.90
52285;DHT22;38238;53.304;6.606;2023-01-10T00:59:24;4.40;99.90
52285;DHT22;38238;53.304;6.606;2023-01-10T01:01:50;4.40;99.90
52285;DHT22;38238;53.304;6.606;2023-01-10T01:04:16;4.90;99.90
52285;DHT22;38238;53.304;6.606;2023-01-10T01:06:44;4.40;99.90
52285;DHT22;38238;53.304;6.606;2023-01-10T01:09:11;4.40;99.90
52285;DHT22;38238;53.304;6.606;2023-01-10T01:11:37;5.70;99.90
52285;DHT22;38238;53.304;6.606;2023-01-10T01:14:03;5.20;99.90
52285;DHT22;38238;53.304;6.606;2023-01-10T01:16:28;4.40;99.90
52285;DHT22;38238;53.304;6.606;2023-01-10T01:18:54;4.40;99.90
52285;DHT22;38238;53.304;6.606;2023-01-10T01:21:20;4.40;99.90
52285;DHT22;38238;53.304;6.606;2023-01-10T01:23:45;5.00;99.90
52285;DHT22;38238;53.304;6.606;2023-01-10T01:26:11;6.30;99.90
52285;DHT22;38238;53.304;6.606;2023-01-10T01:28:37;5.60;99.90
52285;DHT22;38238;53.304;6.606;2023-01-10T01:31:08;4.50;99.90
52285;DHT22;38238;53.304;6.606;2023-01-10T01:33:34;4.60;99.90
52285;DHT22;38238;53.304;6.606;2023-01-10T01:36:00;5.60;99.90
52285;DHT22;38238;53.304;6.606;2023-01-10T01:38:25;4.90;99.90
52285;DHT22;38238;53.304;6.606;2023-01-10T01:40:51;4.60;99.90
52285;DHT22;38238;53.304;6.606;2023-01-10T01:43:25;4.60;99.90
52285;DHT22;38238;53.304;6.606;2023-01-10T01:45:52;5.10;99.90
52285;DHT22;38238;53.304;6.606;2023-01-10T01:53:41;5.30;99.90
52285;DHT22;38238;53.304;6.606;2023-01-10T01:56:18;4.90;99.90
52285;DHT22;38238;53.304;6.606;2023-01-10T01:59:00;4.90;99.90
52285;DHT22;38238;53.304;6.606;2023-01-10T02:01:27;4.90;99.90
52285;DHT22;38238;53.304;6.606;2023-01-10T02:03:59;5.00;99.90
52285;DHT22;38238;53.304;6.606;2023-01-10T02:06:26;5.00;99.90
52285;DHT22;38238;53.304;6.606;2023-01-10T02:11:40;5.90;99.90
52285;DHT22;38238;53.304;6.606;2023-01-10T02:14:07;5.30;99.90
52285;DHT22;38238;53.304;6.606;2023-01-10T02:16:34;4.90;99.90
52285;DHT22;38238;53.304;6.606;2023-01-10T02:19:00;4.90;99.90
52285;DHT22;38238;53.304;6.606;2023-01-10T02:37:57;4.90;99.90
52285;DHT22;38238;53.304;6.606;2023-01-10T02:43:31;5.10;99.90
52285;DHT22;38238;53.304;6.606;2023-01-10T02:46:03;4.90;99.90
52285;DHT22;38238;53.304;6.606;2023-01-10T02:48:30;4.90;99.90
52285;DHT22;38238;53.304;6.606;2023-01-10T02:51:02;4.90;99.90
52285;DHT22;38238;53.304;6.606;2023-01-10T02:53:40;5.50;99.90
52285;DHT22;38238;53.304;6.606;2023-01-10T02:56:23;4.90;99.90
52285;DHT22;38238;53.304;6.606;2023-01-10T02:59:04;4.90;99.90
52285;DHT22;38238;53.304;6.606;2023-01-10T03:09:30;5.00;99.90
52285;DHT22;38238;53.304;6.606;2023-01-10T03:12:09;5.10;99.90
52285;DHT22;38238;53.304;6.606;2023-01-10T03:14:37;5.10;99.90
52285;DHT22;38238;53.304;6.606;2023-01-10T03:17:06;5.10;99.90
52285;DHT22;38238;53.304;6.606;2023-01-10T03:19:39;5.10;99.90
52285;DHT22;38238;53.304;6.606;2023-01-10T03:22:08;5.10;99.90
52285;DHT22;38238;53.304;6.606;2023-01-10T03:24:41;5.10;99.90
52285;DHT22;38238;53.304;6.606;2023-01-10T03:27:20;5.10;99.90
52285;DHT22;38238;53.304;6.606;2023-01-10T03:32:46;5.70;99.90
52285;DHT22;38238;53.304;6.606;2023-01-10T03:35:12;5.00;99.90
52285;DHT22;38238;53.304;6.606;2023-01-10T03:37:58;5.00;99.90
52285;DHT22;38238;53.304;6.606;2023-01-10T03:40:54;5.00;99.90
52285;DHT22;38238;53.304;6.606;2023-01-10T03:46:29;5.00;99.90
52285;DHT22;38238;53.304;6.606;2023-01-10T03:48:58;5.20;99.90
52285;DHT22;38238;53.304;6.606;2023-01-10T03:51:25;5.10;99.90
52285;DHT22;38238;53.304;6.606;2023-01-10T03:53:52;5.20;99.90
52285;DHT22;38238;53.304;6.606;2023-01-10T03:56:17;5.30;99.90
52285;DHT22;38238;53.304;6.606;2023-01-10T03:58:43;5.70;99.90
52285;DHT22;38238;53.304;6.606;2023-01-10T04:01:09;5.60;99.90
52285;DHT22;38238;53.304;6.606;2023-01-10T04:03:34;5.30;99.90
52285;DHT22;38238;53.304;6.606;2023-01-10T04:06:00;5.30;99.90
52285;DHT22;38238;53.304;6.606;2023-01-10T04:08:27;5.30;99.90
52285;DHT22;38238;53.304;6.606;2023-01-10T04:10:53;5.40;99.90
52285;DHT22;38238;53.304;6.606;2023-01-10T04:13:18;5.40;99.90
52285;DHT22;38238;53.304;6.606;2023-01-10T04:15:44;5.60;99.90
52285;DHT22;38238;53.304;6.606;2023-01-10T04:18:10;5.40;99.90
52285;DHT22;38238;53.304;6.606;2023-01-10T04:20:37;5.40;99.90
52285;DHT22;38238;53.304;6.606;2023-01-10T04:23:03;5.30;99.90
52285;DHT22;38238;53.304;6.606;2023-01-10T04:25:28;5.40;99.90
52285;DHT22;38238;53.304;6.606;2023-01-10T04:27:54;5.30;99.90
52285;DHT22;38238;53.304;6.606;2023-01-10T04:30:20;5.30;99.90
52285;DHT22;38238;53.304;6.606;2023-01-10T04:32:46;5.30;99.90
52285;DHT22;38238;53.304;6.606;2023-01-10T04:35:12;5.30;99.90
52285;DHT22;38238;53.304;6.606;2023-01-10T04:37:38;5.20;99.90
52285;DHT22;38238;53.304;6.606;2023-01-10T04:40:04;5.30;99.90
52285;DHT22;38238;53.304;6.606;2023-01-10T04:42:30;5.20;99.90
52285;DHT22;38238;53.304;6.606;2023-01-10T04:44:55;5.20;99.90
52285;DHT22;38238;53.304;6.606;2023-01-10T04:47:21;5.20;99.90
52285;DHT22;38238;53.304;6.606;2023-01-10T04:49:47;5.20;99.90
52285;DHT22;38238;53.304;6.606;2023-01-10T04:52:13;5.20;99.90
52285;DHT22;38238;53.304;6.606;2023-01-10T04:54:38;5.20;99.90
52285;DHT22;38238;53.304;6.606;2023-01-10T04:57:04;5.30;99.90
52285;DHT22;38238;53.304;6.606;2023-01-10T04:59:31;5.30;99.90
52285;DHT22;38238;53.304;6.606;2023-01-10T05:01:57;5.30;99.90
52285;DHT22;38238;53.304;6.606;2023-01-10T05:04:23;5.30;99.90
52285;DHT22;38238;53.304;6.606;2023-01-10T05:06:49;5.30;99.90
52285;DHT22;38238;53.304;6.606;2023-01-10T05:09:14;5.30;99.90
52285;DHT22;38238;53.304;6.606;2023-01-10T05:11:40;5.30;99.90
52285;DHT22;38238;53.304;6.606;2023-01-10T05:14:06;5.30;99.90
52285;DHT22;38238;53.304;6.606;2023-01-10T05:16:32;5.30;99.90
52285;DHT22;38238;53.304;6.606;2023-01-10T05:18:57;5.30;99.90
52285;DHT22;38238;53.304;6.606;2023-01-10T05:21:23;5.30;99.90
52285;DHT22;38238;53.304;6.606;2023-01-10T05:23:49;5.50;99.90
52285;DHT22;38238;53.304;6.606;2023-01-10T05:26:17;5.70;99.90
52285;DHT22;38238;53.304;6.606;2023-01-10T05:28:43;5.60;99.90
52285;DHT22;38238;53.304;6.606;2023-01-10T05:31:12;5.30;99.90
52285;DHT22;38238;53.304;6.606;2023-01-10T05:33:38;5.20;99.90
52285;DHT22;38238;53.304;6.606;2023-01-10T05:36:05;5.30;99.90
52285;DHT22;38238;53.304;6.606;2023-01-10T05:38:31;5.20;99.90
52285;DHT22;38238;53.304;6.606;2023-01-10T05:40:58;5.20;99.90
52285;DHT22;38238;53.304;6.606;2023-01-10T05:43:24;5.20;99.90
52285;DHT22;38238;53.304;6.606;2023-01-10T05:45:50;5.60;99.90
52285;DHT22;38238;53.304;6.606;2023-01-10T05:48:16;5.60;99.90
52285;DHT22;38238;53.304;6.606;2023-01-10T05:50:43;5.80;99.90
52285;DHT22;38238;53.304;6.606;2023-01-10T05:53:08;5.30;99.90
52285;DHT22;38238;53.304;6.606;2023-01-10T05:55:34;5.30;99.90
52285;DHT22;38238;53.304;6.606;2023-01-10T05:58:00;5.30;99.90
52285;DHT22;38238;53.304;6.606;2023-01-10T06:00:25;5.90;99.90
52285;DHT22;38238;53.304;6.606;2023-01-10T06:02:55;5.40;99.90
52285;DHT22;38238;53.304;6.606;2023-01-10T06:05:22;5.40;99.90
52285;DHT22;38238;53.304;6.606;2023-01-10T06:07:48;5.40;99.90
52285;DHT22;38238;53.304;6.606;2023-01-10T06:10:14;5.40;99.90
52285;DHT22;38238;53.304;6.606;2023-01-10T06:12:41;5.50;99.90
52285;DHT22;38238;53.304;6.606;2023-01-10T06:15:08;5.50;99.90
52285;DHT22;38238;53.304;6.606;2023-01-10T06:17:34;5.50;99.90
52285;DHT22;38238;53.304;6.606;2023-01-10T06:20:00;5.50;99.90
52285;DHT22;38238;53.304;6.606;2023-01-10T06:22:25;5.40;99.90
52285;DHT22;38238;53.304;6.606;2023-01-10T06:24:52;5.40;99.90
52285;DHT22;38238;53.304;6.606;2023-01-10T06:27:19;5.40;99.90
52285;DHT22;38238;53.304;6.606;2023-01-10T06:29:45;6.00;99.90
52285;DHT22;38238;53.304;6.606;2023-01-10T06:32:11;6.10;99.90
52285;DHT22;38238;53.304;6.606;2023-01-10T06:34:36;5.30;99.90
52285;DHT22;38238;53.304;6.606;2023-01-10T06:37:02;5.30;99.90
52285;DHT22;38238;53.304;6.606;2023-01-10T06:39:28;6.90;99.90
52285;DHT22;38238;53.304;6.606;2023-01-10T06:41:53;5.20;99.90
52285;DHT22;38238;53.304;6.606;2023-01-10T06:44:19;5.20;99.90
52285;DHT22;38238;53.304;6.606;2023-01-10T06:46:45;5.10;99.90
52285;DHT22;38238;53.304;6.606;2023-01-10T06:49:10;5.10;99.90
52285;DHT22;38238;53.304;6.606;2023-01-10T06:51:36;5.00;99.90
52285;DHT22;38238;53.304;6.606;2023-01-10T06:54:02;5.00;99.90
52285;DHT22;38238;53.304;6.606;2023-01-10T06:56:27;5.00;99.90
52285;DHT22;38238;53.304;6.606;2023-01-10T06:58:53;4.90;99.90
52285;DHT22;38238;53.304;6.606;2023-01-10T07:01:20;5.00;99.90
52285;DHT22;38238;53.304;6.606;2023-01-10T07:03:46;4.90;99.90
52285;DHT22;38238;53.304;6.606;2023-01-10T07:06:13;4.90;99.90
52285;DHT22;38238;53.304;6.606;2023-01-10T07:08:44;4.90;99.90
52285;DHT22;38238;53.304;6.606;2023-01-10T07:11:11;4.90;99.90
52285;DHT22;38238;53.304;6.606;2023-01-10T07:13:38;5.10;99.90
52285;DHT22;38238;53.304;6.606;2023-01-10T07:16:05;4.90;99.90
52285;DHT22;38238;53.304;6.606;2023-01-10T07:18:34;4.90;99.90
52285;DHT22;38238;53.304;6.606;2023-01-10T07:21:00;4.80;99.90
52285;DHT22;38238;53.304;6.606;2023-01-10T07:23:25;5.90;99.90
52285;DHT22;38238;53.304;6.606;2023-01-10T07:25:51;4.90;99.90
52285;DHT22;38238;53.304;6.606;2023-01-10T07:28:17;5.10;99.90
52285;DHT22;38238;53.304;6.606;2023-01-10T07:30:43;4.90;99.90
52285;DHT22;38238;53.304;6.606;2023-01-10T07:33:08;4.90;99.90
52285;DHT22;38238;53.304;6.606;2023-01-10T07:35:34;5.20;99.90
52285;DHT22;38238;53.304;6.606;2023-01-10T07:38:00;5.10;99.90
52285;DHT22;38238;53.304;6.606;2023-01-10T07:40:27;5.50;99.90
52285;DHT22;38238;53.304;6.606;2023-01-10T07:43:01;5.20;99.90
52285;DHT22;38238;53.304;6.606;2023-01-10T07:45:28;5.90;99.90
52285;DHT22;38238;53.304;6.606;2023-01-10T07:47:57;5.50;99.90
52285;DHT22;38238;53.304;6.606;2023-01-10T07:50:24;5.30;99.90
52285;DHT22;38238;53.304;6.606;2023-01-10T07:52:50;5.60;99.90
52285;DHT22;38238;53.304;6.606;2023-01-10T07:55:16;5.40;99.90
52285;DHT22;38238;53.304;6.606;2023-01-10T07:57:42;6.40;99.90
52285;DHT22;38238;53.304;6.606;2023-01-10T08:00:08;5.40;99.90
52285;DHT22;38238;53.304;6.606;2023-01-10T08:02:34;5.40;99.90
52285;DHT22;38238;53.304;6.606;2023-01-10T08:05:00;5.40;99.90
52285;DHT22;38238;53.304;6.606;2023-01-10T08:07:28;5.40;99.90
52285;DHT22;38238;53.304;6.606;2023-01-10T08:09:54;5.40;99.90
52285;DHT22;38238;53.304;6.606;2023-01-10T08:12:20;5.60;99.90
52285;DHT22;38238;53.304;6.606;2023-01-10T08:14:46;5.40;99.90
52285;DHT22;38238;53.304;6.606;2023-01-10T08:17:11;5.20;99.90
52285;DHT22;38238;53.304;6.606;2023-01-10T08:19:37;5.30;99.90
52285;DHT22;38238;53.304;6.606;2023-01-10T08:22:03;5.30;99.90
52285;DHT22;38238;53.304;6.606;2023-01-10T08:24:28;5.40;99.90
52285;DHT22;38238;53.304;6.606;2023-01-10T08:26:57;5.40;99.90
52285;DHT22;38238;53.304;6.606;2023-01-10T08:29:23;5.80;99.90
52285;DHT22;38238;53.304;6.606;2023-01-10T08:31:48;6.20;99.90
52285;DHT22;38238;53.304;6.606;2023-01-10T08:34:14;5.80;99.90
52285;DHT22;38238;53.304;6.606;2023-01-10T08:36:40;5.40;99.90
52285;DHT22;38238;53.304;6.606;2023-01-10T08:39:05;5.40;99.90
52285;DHT22;38238;53.304;6.606;2023-01-10T08:41:31;5.50;99.90
52285;DHT22;38238;53.304;6.606;2023-01-10T08:43:57;6.00;99.90
52285;DHT22;38238;53.304;6.606;2023-01-10T08:46:22;5.90;99.90
52285;DHT22;38238;53.304;6.606;2023-01-10T08:48:48;5.50;99.90
52285;DHT22;38238;53.304;6.606;2023-01-10T08:51:14;5.60;99.90
52285;DHT22;38238;53.304;6.606;2023-01-10T08:53:40;5.50;99.90
52285;DHT22;38238;53.304;6.606;2023-01-10T08:56:07;6.10;99.90
52285;DHT22;38238;53.304;6.606;2023-01-10T08:58:33;5.50;99.90
52285;DHT22;38238;53.304;6.606;2023-01-10T09:01:02;5.50;99.90
52285;DHT22;38238;53.304;6.606;2023-01-10T09:03:27;5.50;99.90
52285;DHT22;38238;53.304;6.606;2023-01-10T09:05:53;5.60;99.90
52285;DHT22;38238;53.304;6.606;2023-01-10T09:08:19;5.60;99.90
52285;DHT22;38238;53.304;6.606;2023-01-10T09:10:44;5.80;99.90
52285;DHT22;38238;53.304;6.606;2023-01-10T09:13:10;5.80;99.90
52285;DHT22;38238;53.304;6.606;2023-01-10T09:15:36;5.80;99.90
52285;DHT22;38238;53.304;6.606;2023-01-10T09:18:06;5.80;99.90
52285;DHT22;38238;53.304;6.606;2023-01-10T09:20:34;5.80;99.90
52285;DHT22;38238;53.304;6.606;2023-01-10T09:23:09;5.80;99.90
52285;DHT22;38238;53.304;6.606;2023-01-10T09:25:35;5.80;99.90
52285;DHT22;38238;53.304;6.606;2023-01-10T09:28:02;5.90;99.90
52285;DHT22;38238;53.304;6.606;2023-01-10T09:30:29;5.80;99.90
52285;DHT22;38238;53.304;6.606;2023-01-10T09:32:56;5.90;99.90
52285;DHT22;38238;53.304;6.606;2023-01-10T09:35:23;5.90;99.90
52285;DHT22;38238;53.304;6.606;2023-01-10T09:37:52;6.00;99.90
52285;DHT22;38238;53.304;6.606;2023-01-10T09:40:23;6.10;99.90
52285;DHT22;38238;53.304;6.606;2023-01-10T09:46:04;6.20;99.90
52285;DHT22;38238;53.304;6.606;2023-01-10T09:48:44;6.20;99.90
52285;DHT22;38238;53.304;6.606;2023-01-10T09:51:26;6.30;99.90
52285;DHT22;38238;53.304;6.606;2023-01-10T09:53:56;6.20;99.90
52285;DHT22;38238;53.304;6.606;2023-01-10T09:56:25;6.30;99.90
52285;DHT22;38238;53.304;6.606;2023-01-10T09:58:52;6.30;99.90
52285;DHT22;38238;53.304;6.606;2023-01-10T10:01:21;7.00;99.90
52285;DHT22;38238;53.304;6.606;2023-01-10T10:06:48;6.40;99.90
52285;DHT22;38238;53.304;6.606;2023-01-10T10:09:23;7.70;99.90
52285;DHT22;38238;53.304;6.606;2023-01-10T10:17:34;6.40;99.90
52285;DHT22;38238;53.304;6.606;2023-01-10T10:20:35;6.50;99.90
52285;DHT22;38238;53.304;6.606;2023-01-10T10:26:21;6.40;99.90
52285;DHT22;38238;53.304;6.606;2023-01-10T10:29:19;6.20;99.90
52285;DHT22;38238;53.304;6.606;2023-01-10T10:34:39;6.50;99.90
52285;DHT22;38238;53.304;6.606;2023-01-10T10:40:07;6.60;99.90
52285;DHT22;38238;53.304;6.606;2023-01-10T10:42:43;6.60;99.90
52285;DHT22;38238;53.304;6.606;2023-01-10T10:45:28;6.60;99.90
52285;DHT22;38238;53.304;6.606;2023-01-10T10:48:20;6.70;99.90
52285;DHT22;38238;53.304;6.606;2023-01-10T10:53:50;6.70;99.90
52285;DHT22;38238;53.304;6.606;2023-01-10T10:56:19;6.70;99.90
52285;DHT22;38238;53.304;6.606;2023-01-10T10:58:48;6.80;99.90
52285;DHT22;38238;53.304;6.606;2023-01-10T11:01:16;6.80;99.90
52285;DHT22;38238;53.304;6.606;2023-01-10T11:03:56;6.80;99.90
52285;DHT22;38238;53.304;6.606;2023-01-10T11:06:24;6.70;99.90
52285;DHT22;38238;53.304;6.606;2023-01-10T11:08:55;6.70;99.90
52285;DHT22;38238;53.304;6.606;2023-01-10T11:11:28;6.80;99.90
52285;DHT22;38238;53.304;6.606;2023-01-10T11:13:57;6.80;99.90
52285;DHT22;38238;53.304;6.606;2023-01-10T11:21:34;6.80;99.90
52285;DHT22;38238;53.304;6.606;2023-01-10T11:24:00;6.80;99.90
52285;DHT22;38238;53.304;6.606;2023-01-10T11:26:29;6.90;99.90
52285;DHT22;38238;53.304;6.606;2023-01-10T11:29:06;7.10;99.90
52285;DHT22;38238;53.304;6.606;2023-01-10T11:31:35;6.90;99.90
52285;DHT22;38238;53.304;6.606;2023-01-10T11:34:04;6.90;99.90
52285;DHT22;38238;53.304;6.606;2023-01-10T11:37:01;6.90;99.90
52285;DHT22;38238;53.304;6.606;2023-01-10T11:39:28;6.90;99.90
52285;DHT22;38238;53.304;6.606;2023-01-10T11:41:54;6.90;99.90
52285;DHT22;38238;53.304;6.606;2023-01-10T11:44:29;6.90;99.90
52285;DHT22;38238;53.304;6.606;2023-01-10T11:47:00;7.00;99.90
52285;DHT22;38238;53.304;6.606;2023-01-10T11:49:35;7.00;99.90
52285;DHT22;38238;53.304;6.606;2023-01-10T11:52:23;7.00;99.90
52285;DHT22;38238;53.304;6.606;2023-01-10T11:54:51;6.90;99.90
52285;DHT22;38238;53.304;6.606;2023-01-10T11:57:21;7.00;99.90
52285;DHT22;38238;53.304;6.606;2023-01-10T12:00:14;6.90;99.90
52285;DHT22;38238;53.304;6.606;2023-01-10T12:02:40;6.90;99.90
52285;DHT22;38238;53.304;6.606;2023-01-10T12:05:10;7.50;99.90
52285;DHT22;38238;53.304;6.606;2023-01-10T12:07:59;6.90;99.90
52285;DHT22;38238;53.304;6.606;2023-01-10T12:10:34;7.00;99.90
52285;DHT22;38238;53.304;6.606;2023-01-10T12:13:13;7.00;99.90
52285;DHT22;38238;53.304;6.606;2023-01-10T12:15:39;7.00;99.90
52285;DHT22;38238;53.304;6.606;2023-01-10T12:18:05;6.90;99.90
52285;DHT22;38238;53.304;6.606;2023-01-10T12:20:38;7.00;99.90
52285;DHT22;38238;53.304;6.606;2023-01-10T12:23:13;7.00;99.90
52285;DHT22;38238;53.304;6.606;2023-01-10T12:25:42;6.90;99.90
52285;DHT22;38238;53.304;6.606;2023-01-10T12:28:21;7.00;99.90
52285;DHT22;38238;53.304;6.606;2023-01-10T12:30:48;6.90;99.90
52285;DHT22;38238;53.304;6.606;2023-01-10T12:33:36;6.90;99.90
52285;DHT22;38238;53.304;6.606;2023-01-10T12:44:34;6.90;99.90
52285;DHT22;38238;53.304;6.606;2023-01-10T12:50:33;6.80;99.90
52285;DHT22;38238;53.304;6.606;2023-01-10T12:55:37;7.30;99.90
52285;DHT22;38238;53.304;6.606;2023-01-10T12:58:15;6.90;99.90
52285;DHT22;38238;53.304;6.606;2023-01-10T13:00:45;6.90;99.90
52285;DHT22;38238;53.304;6.606;2023-01-10T13:03:15;6.80;99.90
52285;DHT22;38238;53.304;6.606;2023-01-10T13:05:44;6.80;99.90
52285;DHT22;38238;53.304;6.606;2023-01-10T13:08:16;6.80;99.90
52285;DHT22;38238;53.304;6.606;2023-01-10T13:10:45;6.80;99.90
52285;DHT22;38238;53.304;6.606;2023-01-10T13:18:30;6.80;99.90
52285;DHT22;38238;53.304;6.606;2023-01-10T13:21:03;6.70;99.90
52285;DHT22;38238;53.304;6.606;2023-01-10T13:23:34;6.70;99.90
52285;DHT22;38238;53.304;6.606;2023-01-10T13:26:07;6.70;99.90
52285;DHT22;38238;53.304;6.606;2023-01-10T13:28:36;6.70;99.90
52285;DHT22;38238;53.304;6.606;2023-01-10T13:31:05;6.70;99.90
52285;DHT22;38238;53.304;6.606;2023-01-10T13:33:36;6.70;99.90
52285;DHT22;38238;53.304;6.606;2023-01-10T13:36:24;6.80;99.90
52285;DHT22;38238;53.304;6.606;2023-01-10T13:38:58;6.70;99.90
52285;DHT22;38238;53.304;6.606;2023-01-10T13:42:33;6.60;99.90
52285;DHT22;38238;53.304;6.606;2023-01-10T13:58:03;6.60;99.90
52285;DHT22;38238;53.304;6.606;2023-01-10T14:09:00;6.50;99.90
52285;DHT22;38238;53.304;6.606;2023-01-10T14:11:34;6.90;99.90
52285;DHT22;38238;53.304;6.606;2023-01-10T14:14:20;7.00;99.90
52285;DHT22;38238;53.304;6.606;2023-01-10T14:16:50;6.50;99.90
52285;DHT22;38238;53.304;6.606;2023-01-10T14:19:28;6.50;99.90
52285;DHT22;38238;53.304;6.606;2023-01-10T14:21:56;6.50;99.90
52285;DHT22;38238;53.304;6.606;2023-01-10T14:24:45;6.50;99.90
52285;DHT22;38238;53.304;6.606;2023-01-10T14:27:17;6.50;99.90
52285;DHT22;38238;53.304;6.606;2023-01-10T14:29:50;6.50;99.90
52285;DHT22;38238;53.304;6.606;2023-01-10T14:32:33;6.90;99.90
52285;DHT22;38238;53.304;6.606;2023-01-10T14:35:03;6.40;99.90
52285;DHT22;38238;53.304;6.606;2023-01-10T14:40:05;6.40;99.90
52285;DHT22;38238;53.304;6.606;2023-01-10T14:42:35;6.40;99.90
52285;DHT22;38238;53.304;6.606;2023-01-10T14:45:13;6.40;99.90
52285;DHT22;38238;53.304;6.606;2023-01-10T14:47:41;6.40;99.90
52285;DHT22;38238;53.304;6.606;2023-01-10T14:50:26;6.40;99.90
52285;DHT22;38238;53.304;6.606;2023-01-10T14:52:53;6.30;99.90
52285;DHT22;38238;53.304;6.606;2023-01-10T14:55:20;6.30;99.90
52285;DHT22;38238;53.304;6.606;2023-01-10T14:58:00;6.30;99.90
52285;DHT22;38238;53.304;6.606;2023-01-10T15:00:31;6.30;99.90
52285;DHT22;38238;53.304;6.606;2023-01-10T15:02:58;6.70;99.90
52285;DHT22;38238;53.304;6.606;2023-01-10T15:05:38;6.30;99.90
52285;DHT22;38238;53.304;6.606;2023-01-10T15:08:21;6.30;99.90
52285;DHT22;38238;53.304;6.606;2023-01-10T15:10:50;6.30;99.90
52285;DHT22;38238;53.304;6.606;2023-01-10T15:13:20;6.30;99.90
52285;DHT22;38238;53.304;6.606;2023-01-10T15:15:47;6.30;99.90
52285;DHT22;38238;53.304;6.606;2023-01-10T15:18:36;6.30;99.90
52285;DHT22;38238;53.304;6.606;2023-01-10T15:21:03;6.30;99.90
52285;DHT22;38238;53.304;6.606;2023-01-10T15:23:34;6.40;99.90
52285;DHT22;38238;53.304;6.606;2023-01-10T15:26:03;6.40;99.90
52285;DHT22;38238;53.304;6.606;2023-01-10T15:28:29;6.30;99.90
52285;DHT22;38238;53.304;6.606;2023-01-10T15:30:56;6.70;99.90
52285;DHT22;38238;53.304;6.606;2023-01-10T15:33:31;6.30;99.90
52285;DHT22;38238;53.304;6.606;2023-01-10T15:36:04;6.40;99.90
52285;DHT22;38238;53.304;6.606;2023-01-10T15:38:31;6.30;99.90
52285;DHT22;38238;53.304;6.606;2023-01-10T15:41:02;6.40;99.90
52285;DHT22;38238;53.304;6.606;2023-01-10T15:43:30;6.30;99.90
52285;DHT22;38238;53.304;6.606;2023-01-10T15:45:57;6.30;99.90
52285;DHT22;38238;53.304;6.606;2023-01-10T15:48:38;6.40;99.90
52285;DHT22;38238;53.304;6.606;2023-01-10T15:56:27;6.40;99.90
52285;DHT22;38238;53.304;6.606;2023-01-10T15:58:53;6.40;99.90
52285;DHT22;38238;53.304;6.606;2023-01-10T16:01:20;6.40;99.90
52285;DHT22;38238;53.304;6.606;2023-01-10T16:03:51;6.40;99.90
52285;DHT22;38238;53.304;6.606;2023-01-10T16:06:33;6.40;99.90
52285;DHT22;38238;53.304;6.606;2023-01-10T16:09:02;6.30;99.90
52285;DHT22;38238;53.304;6.606;2023-01-10T16:11:35;6.30;99.90
52285;DHT22;38238;53.304;6.606;2023-01-10T16:14:19;6.30;99.90
52285;DHT22;38238;53.304;6.606;2023-01-10T16:16:45;6.20;99.90
52285;DHT22;38238;53.304;6.606;2023-01-10T16:19:11;6.70;99.90
52285;DHT22;38238;53.304;6.606;2023-01-10T16:21:43;6.20;99.90
52285;DHT22;38238;53.304;6.606;2023-01-10T16:24:21;6.20;99.90
52285;DHT22;38238;53.304;6.606;2023-01-10T16:26:48;6.10;99.90
52285;DHT22;38238;53.304;6.606;2023-01-10T16:29:15;6.10;99.90
52285;DHT22;38238;53.304;6.606;2023-01-10T16:31:41;6.10;99.90
52285;DHT22;38238;53.304;6.606;2023-01-10T16:34:07;6.00;99.90
52285;DHT22;38238;53.304;6.606;2023-01-10T16:36:32;6.00;99.90
52285;DHT22;38238;53.304;6.606;2023-01-10T16:39:05;6.00;99.90
52285;DHT22;38238;53.304;6.606;2023-01-10T16:41:31;6.00;99.90
52285;DHT22;38238;53.304;6.606;2023-01-10T16:44:16;5.90;99.90
52285;DHT22;38238;53.304;6.606;2023-01-10T16:46:44;6.10;99.90
52285;DHT22;38238;53.304;6.606;2023-01-10T16:49:09;5.80;99.90
52285;DHT22;38238;53.304;6.606;2023-01-10T16:51:38;5.80;99.90
52285;DHT22;38238;53.304;6.606;2023-01-10T16:54:04;5.80;99.90
52285;DHT22;38238;53.304;6.606;2023-01-10T16:56:30;5.70;99.90
52285;DHT22;38238;53.304;6.606;2023-01-10T16:58:56;6.20;99.90
52285;DHT22;38238;53.304;6.606;2023-01-10T17:01:25;5.70;99.90
52285;DHT22;38238;53.304;6.606;2023-01-10T17:03:53;5.70;99.90
52285;DHT22;38238;53.304;6.606;2023-01-10T17:06:19;5.70;99.90
52285;DHT22;38238;53.304;6.606;2023-01-10T17:08:45;5.60;99.90
52285;DHT22;38238;53.304;6.606;2023-01-10T17:11:25;6.40;99.90
52285;DHT22;38238;53.304;6.606;2023-01-10T17:13:52;5.60;99.90
52285;DHT22;38238;53.304;6.606;2023-01-10T17:16:18;5.60;99.90
52285;DHT22;38238;53.304;6.606;2023-01-10T17:18:44;5.60;99.90
52285;DHT22;38238;53.304;6.606;2023-01-10T17:21:19;5.60;99.90
52285;DHT22;38238;53.304;6.606;2023-01-10T17:23:45;5.60;99.90
52285;DHT22;38238;53.304;6.606;2023-01-10T17:26:12;5.90;99.90
52285;DHT22;38238;53.304;6.606;2023-01-10T17:28:39;5.50;99.90
52285;DHT22;38238;53.304;6.606;2023-01-10T17:31:16;5.50;99.90
52285;DHT22;38238;53.304;6.606;2023-01-10T17:33:44;5.50;99.90
52285;DHT22;38238;53.304;6.606;2023-01-10T17:36:10;5.60;99.90
52285;DHT22;38238;53.304;6.606;2023-01-10T17:38:37;5.60;99.90
52285;DHT22;38238;53.304;6.606;2023-01-10T17:41:02;5.50;99.90
52285;DHT22;38238;53.304;6.606;2023-01-10T17:43:29;5.60;99.90
52285;DHT22;38238;53.304;6.606;2023-01-10T17:45:55;5.60;99.90
52285;DHT22;38238;53.304;6.606;2023-01-10T17:48:23;5.60;99.90
52285;DHT22;38238;53.304;6.606;2023-01-10T17:50:55;5.60;99.90
52285;DHT22;38238;53.304;6.606;2023-01-10T17:53:21;5.60;99.90
52285;DHT22;38238;53.304;6.606;2023-01-10T17:55:48;5.60;99.90
52285;DHT22;38238;53.304;6.606;2023-01-10T17:58:14;5.60;99.90